Time;durP1;ratioP1;P1;durP2;ratioP2;P2;SDS_P1;SDS_P2;PMS_P1;PMS_P2;Temp;Humidity;BMP_temperature;BMP_pressure;BME280_temperature;BME280_humidity;BME280_pressure;Samples;Min_cycle;Max_cycle;Signal;HPM_P1;HPM_P2
2024/03/10 00:01:26;;;;;;;7.57;6.20;;;12.40;65.90;;;;;;4936766;29;20212;-74
2024/03/10 00:03:55;;;;;;;8.80;6.20;;;12.40;65.90;;;;;;4951778;29;20560;-74
2024/03/10 00:06:22;;;;;;;9.35;6.63;;;12.30;65.70;;;;;;4919622;29;20213;-74
2024/03/10 00:08:47;;;;;;;9.40;6.72;;;12.30;66.60;;;;;;4935271;29;20177;-74
2024/03/10 00:11:14;;;;;;;6.50;5.50;;;12.30;66.10;;;;;;4935442;29;20179;-75
2024/03/10 00:13:41;;;;;;;8.25;6.35;;;12.30;66.40;;;;;;4936942;29;20192;-74
2024/03/10 00:16:09;;;;;;;9.80;6.63;;;12.20;66.60;;;;;;4936758;29;20630;-74
2024/03/10 00:18:36;;;;;;;9.70;6.93;;;12.20;66.80;;;;;;4919173;29;20177;-73
2024/03/10 00:21:05;;;;;;;9.20;7.10;;;12.20;66.80;;;;;;4935237;29;20181;-74
2024/03/10 00:23:31;;;;;;;7.70;5.75;;;12.20;67.70;;;;;;4935430;29;20229;-74
2024/03/10 00:25:57;;;;;;;10.18;7.13;;;12.30;67.30;;;;;;4936355;29;20221;-74
2024/03/10 00:28:23;;;;;;;8.90;7.17;;;12.30;67.40;;;;;;4951047;29;20224;-73
2024/03/10 00:30:48;;;;;;;8.47;6.77;;;12.30;67.30;;;;;;4918958;29;20268;-74
2024/03/10 00:33:15;;;;;;;6.90;5.40;;;12.40;67.40;;;;;;4935262;29;20181;-74
2024/03/10 00:35:42;;;;;;;8.18;5.70;;;12.40;67.80;;;;;;4918722;29;20204;-74
2024/03/10 00:38:08;;;;;;;9.23;6.97;;;12.40;67.60;;;;;;4919096;29;20274;-74
2024/03/10 00:40:34;;;;;;;7.43;5.97;;;12.50;67.70;;;;;;4935003;29;20197;-74
2024/03/10 00:42:59;;;;;;;7.47;5.75;;;12.50;67.60;;;;;;4934991;29;20204;-74
2024/03/10 00:45:25;;;;;;;10.67;7.17;;;12.60;67.70;;;;;;4936287;29;20181;-73
2024/03/10 00:47:55;;;;;;;10.30;7.17;;;12.60;67.90;;;;;;4934832;29;20192;-75
2024/03/10 00:50:21;;;;;;;9.52;6.85;;;12.60;68.20;;;;;;4934172;29;20351;-73
2024/03/10 00:52:47;;;;;;;10.25;7.30;;;12.60;68.00;;;;;;4934504;29;20177;-73
2024/03/10 00:55:13;;;;;;;8.50;6.70;;;12.60;67.90;;;;;;4934741;29;20185;-73
2024/03/10 00:57:40;;;;;;;10.97;7.67;;;12.70;67.90;;;;;;4935685;29;20749;-73
2024/03/10 01:00:10;;;;;;;9.65;7.88;;;12.70;68.30;;;;;;4935350;29;20647;-72
2024/03/10 01:02:37;;;;;;;8.55;6.85;;;12.60;68.30;;;;;;4918075;29;20220;-72
2024/03/10 01:05:04;;;;;;;9.40;6.97;;;12.60;68.20;;;;;;4934700;29;20189;-73
2024/03/10 01:07:30;;;;;;;8.10;5.97;;;12.60;68.40;;;;;;4918699;29;20197;-73
2024/03/10 01:09:56;;;;;;;6.57;4.63;;;12.60;68.40;;;;;;4918207;29;20559;-73
2024/03/10 01:12:22;;;;;;;13.82;7.15;;;12.60;68.30;;;;;;4934140;29;20603;-73
2024/03/10 01:14:48;;;;;;;10.00;6.90;;;12.60;68.30;;;;;;4918623;29;20176;-73
2024/03/10 01:17:13;;;;;;;8.57;5.93;;;12.60;68.80;;;;;;4934181;29;20213;-73
2024/03/10 01:19:44;;;;;;;10.73;6.90;;;12.60;68.60;;;;;;4933823;29;20187;-75
2024/03/10 01:22:10;;;;;;;8.77;6.60;;;12.60;68.50;;;;;;4933937;29;20268;-73
2024/03/10 01:24:35;;;;;;;9.43;6.00;;;12.60;68.90;;;;;;4935488;29;20177;-73
2024/03/10 01:27:01;;;;;;;7.53;5.40;;;12.60;68.50;;;;;;4949684;29;20620;-72
2024/03/10 01:29:27;;;;;;;9.48;6.07;;;12.60;68.60;;;;;;4934984;29;20185;-72
2024/03/10 01:31:55;;;;;;;9.87;6.70;;;12.60;68.50;;;;;;4935414;29;20181;-73
2024/03/10 01:34:21;;;;;;;8.75;6.65;;;12.60;68.70;;;;;;4934116;29;20592;-73
2024/03/10 01:36:47;;;;;;;8.20;6.37;;;12.60;68.90;;;;;;4935565;29;20275;-73
2024/03/10 01:39:13;;;;;;;9.10;6.40;;;12.60;68.90;;;;;;4933533;29;20601;-73
2024/03/10 01:41:39;;;;;;;8.27;6.23;;;12.60;68.90;;;;;;4933824;29;20636;-73
2024/03/10 01:44:07;;;;;;;7.60;6.20;;;12.60;68.90;;;;;;4934150;29;20653;-73
2024/03/10 01:46:38;;;;;;;8.15;6.57;;;12.60;69.00;;;;;;4935030;29;20612;-74
2024/03/10 01:49:05;;;;;;;7.43;5.85;;;12.60;69.00;;;;;;4932930;29;20181;-73
2024/03/10 01:51:32;;;;;;;8.32;6.65;;;12.60;69.10;;;;;;4949839;29;20240;-73
2024/03/10 01:53:59;;;;;;;7.53;6.25;;;12.60;69.60;;;;;;4934906;29;20271;-73
2024/03/10 01:56:26;;;;;;;9.02;6.40;;;12.60;69.90;;;;;;4934755;29;20212;-73
2024/03/10 01:58:53;;;;;;;8.25;6.18;;;12.60;69.60;;;;;;4933048;29;20276;-73
2024/03/10 02:01:21;;;;;;;7.85;5.80;;;12.60;69.70;;;;;;4934720;29;20184;-73
2024/03/10 02:03:51;;;;;;;9.43;7.18;;;12.60;70.60;;;;;;4934747;29;20188;-73
2024/03/10 02:06:17;;;;;;;8.70;6.30;;;12.60;69.70;;;;;;4949327;28;20193;-73
2024/03/10 02:08:46;;;;;;;11.13;6.97;;;12.60;69.90;;;;;;4934092;29;20568;-73
2024/03/10 02:11:13;;;;;;;8.88;6.25;;;12.60;69.80;;;;;;4934541;29;20181;-74
2024/03/10 02:13:40;;;;;;;9.48;6.20;;;12.60;69.80;;;;;;4933028;29;20196;-73
2024/03/10 02:16:08;;;;;;;7.90;6.03;;;12.60;69.90;;;;;;4932372;29;20306;-73
2024/03/10 02:18:34;;;;;;;6.85;5.60;;;12.60;70.20;;;;;;4933921;29;20503;-73
2024/03/10 02:21:03;;;;;;;8.40;5.88;;;12.50;70.10;;;;;;4934301;29;20584;-73
2024/03/10 02:23:37;;;;;;;9.20;6.40;;;12.60;70.20;;;;;;4934116;29;20272;-73
2024/03/10 02:26:04;;;;;;;7.75;5.35;;;12.60;70.10;;;;;;4934433;29;20200;-73
2024/03/10 02:28:56;;;;;;;6.97;4.55;;;12.60;70.30;;;;;;4901732;29;20276;-74
2024/03/10 02:47:52;;;;;;;7.30;5.40;;;12.60;70.50;;;;;;4934815;29;20631;-73
2024/03/10 02:50:17;;;;;;;7.60;5.83;;;12.60;70.70;;;;;;4948832;29;20184;-73
2024/03/10 02:52:44;;;;;;;7.80;5.73;;;12.60;71.00;;;;;;4933206;29;20193;-75
2024/03/10 02:55:11;;;;;;;6.10;4.70;;;12.50;70.90;;;;;;4914578;29;20181;-73
2024/03/10 02:57:37;;;;;;;7.13;4.68;;;12.60;70.80;;;;;;4933367;29;20252;-73
2024/03/10 03:00:05;;;;;;;8.10;5.20;;;12.60;70.80;;;;;;4932943;29;20223;-73
2024/03/10 03:02:33;;;;;;;6.18;4.72;;;12.60;70.80;;;;;;4933885;29;20536;-75
2024/03/10 03:04:59;;;;;;;7.50;4.45;;;12.60;71.00;;;;;;4932561;29;20176;-73
2024/03/10 03:07:24;;;;;;;7.50;5.30;;;12.60;70.90;;;;;;4932500;29;20208;-73
2024/03/10 03:09:50;;;;;;;6.67;5.17;;;12.60;71.00;;;;;;4933889;29;21134;-73
2024/03/10 03:12:16;;;;;;;10.50;5.57;;;12.60;70.90;;;;;;4948836;29;20212;-73
2024/03/10 03:14:42;;;;;;;8.10;5.33;;;12.60;71.30;;;;;;4933890;29;20177;-75
2024/03/10 03:17:08;;;;;;;7.40;5.25;;;12.60;71.10;;;;;;4948248;29;20251;-73
2024/03/10 03:19:36;;;;;;;6.77;4.90;;;12.60;71.20;;;;;;4933171;29;20212;-73
2024/03/10 03:22:06;;;;;;;5.55;4.45;;;12.60;71.20;;;;;;4931962;29;20232;-73
2024/03/10 03:24:32;;;;;;;5.68;3.72;;;12.60;71.10;;;;;;4933149;29;20240;-73
2024/03/10 03:26:58;;;;;;;6.72;4.90;;;12.60;71.30;;;;;;4934411;29;20278;-75
2024/03/10 03:29:24;;;;;;;6.47;5.20;;;12.60;71.70;;;;;;4932717;29;20233;-73
2024/03/10 03:31:50;;;;;;;5.87;4.43;;;12.60;71.80;;;;;;4932104;29;20636;-73
2024/03/10 03:34:19;;;;;;;5.73;4.17;;;12.60;71.60;;;;;;4932216;29;20666;-73
2024/03/10 03:36:45;;;;;;;6.30;4.82;;;12.60;71.60;;;;;;4932010;29;20917;-73
2024/03/10 03:39:11;;;;;;;5.07;4.03;;;12.70;71.60;;;;;;4931670;29;20277;-73
2024/03/10 03:41:37;;;;;;;5.80;4.57;;;12.70;71.60;;;;;;4932970;29;20874;-73
2024/03/10 03:44:10;;;;;;;10.52;5.65;;;12.70;71.80;;;;;;4933325;29;20613;-73
2024/03/10 03:46:35;;;;;;;5.30;4.40;;;12.70;71.80;;;;;;4933184;29;20200;-73
2024/03/10 03:49:01;;;;;;;5.67;3.80;;;12.70;71.90;;;;;;4932682;29;20169;-73
2024/03/10 03:51:27;;;;;;;4.40;3.53;;;12.70;71.80;;;;;;4931878;29;20600;-74
2024/03/10 03:53:53;;;;;;;5.23;4.03;;;12.80;71.90;;;;;;4932188;29;20611;-73
2024/03/10 03:56:20;;;;;;;6.80;4.53;;;12.80;72.10;;;;;;4932006;29;20675;-73
2024/03/10 03:58:46;;;;;;;4.80;3.60;;;12.80;72.20;;;;;;4932717;29;20196;-73
2024/03/10 04:01:12;;;;;;;5.40;4.47;;;12.80;72.20;;;;;;4932965;29;20173;-73
2024/03/10 04:03:40;;;;;;;6.45;4.50;;;12.90;72.20;;;;;;4947745;29;20185;-73
2024/03/10 04:06:06;;;;;;;5.88;3.83;;;12.80;72.40;;;;;;4933379;29;20197;-73
2024/03/10 04:08:32;;;;;;;6.47;4.20;;;12.90;73.10;;;;;;4933257;29;20184;-73
2024/03/10 04:10:58;;;;;;;4.90;3.67;;;12.90;73.10;;;;;;4932942;29;20676;-74
2024/03/10 04:13:24;;;;;;;6.28;4.68;;;12.90;72.20;;;;;;4933495;29;20244;-73
2024/03/10 04:15:50;;;;;;;8.02;4.15;;;12.90;72.20;;;;;;4931772;29;20232;-73
2024/03/10 04:18:16;;;;;;;4.78;3.50;;;12.90;72.20;;;;;;4900550;29;20561;-73
2024/03/10 04:20:45;;;;;;;6.43;4.53;;;13.00;72.30;;;;;;4931510;29;20185;-73
2024/03/10 04:23:11;;;;;;;5.07;4.27;;;12.90;72.40;;;;;;4916099;29;20640;-74
2024/03/10 04:25:37;;;;;;;6.37;4.90;;;12.90;72.20;;;;;;4931798;29;20589;-75
2024/03/10 04:28:03;;;;;;;7.17;4.60;;;12.90;72.30;;;;;;4934947;29;20584;-74
2024/03/10 04:30:29;;;;;;;6.07;4.45;;;12.90;72.50;;;;;;4932875;29;20181;-73
2024/03/10 04:32:55;;;;;;;6.80;4.13;;;12.90;73.20;;;;;;4932240;29;20188;-73
2024/03/10 04:35:21;;;;;;;5.30;3.90;;;12.90;72.60;;;;;;4933573;29;20636;-74
2024/03/10 04:37:47;;;;;;;5.10;3.67;;;12.90;73.60;;;;;;4932688;29;21206;-73
2024/03/10 04:40:16;;;;;;;6.77;5.03;;;12.90;72.80;;;;;;4919114;29;20589;-73
2024/03/10 04:42:42;;;;;;;5.60;4.35;;;12.90;72.70;;;;;;4951196;29;20651;-73
2024/03/10 04:45:11;;;;;;;6.50;4.70;;;12.80;72.60;;;;;;4935614;29;20181;-73
2024/03/10 04:47:37;;;;;;;6.65;4.68;;;12.80;72.80;;;;;;4934029;29;20636;-73
2024/03/10 04:50:03;;;;;;;6.55;5.60;;;12.80;72.90;;;;;;4935207;29;20644;-74
2024/03/10 04:52:29;;;;;;;7.18;5.05;;;12.80;73.20;;;;;;4936410;29;20545;-73
2024/03/10 04:54:55;;;;;;;11.30;4.40;;;12.80;73.10;;;;;;4934990;29;20187;-73
2024/03/10 04:57:22;;;;;;;6.13;4.37;;;12.80;73.10;;;;;;4936159;29;20538;-75
2024/03/10 04:59:48;;;;;;;5.15;3.88;;;12.80;73.20;;;;;;4934304;29;20185;-75
2024/03/10 05:02:14;;;;;;;5.88;5.03;;;12.80;73.00;;;;;;4935581;29;20205;-75
2024/03/10 05:04:40;;;;;;;7.73;5.00;;;12.70;73.00;;;;;;4950834;29;20177;-75
2024/03/10 05:07:06;;;;;;;5.03;4.23;;;12.70;73.30;;;;;;4936148;29;20676;-75
2024/03/10 05:09:32;;;;;;;7.35;5.00;;;12.70;73.10;;;;;;4934253;29;20591;-75
2024/03/10 05:11:58;;;;;;;5.73;4.30;;;12.60;73.70;;;;;;4918798;29;20648;-74
2024/03/10 05:14:24;;;;;;;6.57;4.73;;;12.70;73.40;;;;;;4934679;29;20593;-75
2024/03/10 05:16:49;;;;;;;5.80;4.10;;;12.60;74.30;;;;;;4918251;29;20219;-74
2024/03/10 05:19:15;;;;;;;7.17;5.10;;;12.60;73.50;;;;;;4923149;23;21045;-77
2024/03/10 05:21:47;;;;;;;6.73;4.43;;;12.60;73.50;;;;;;4896707;29;20218;-78
2024/03/10 05:24:13;;;;;;;5.80;4.72;;;12.60;73.70;;;;;;4897617;29;20265;-77
2024/03/10 05:26:39;;;;;;;5.90;4.23;;;12.60;73.90;;;;;;4896124;29;20265;-77
2024/03/10 05:29:05;;;;;;;5.45;4.78;;;12.60;73.80;;;;;;4896917;29;21053;-77
2024/03/10 05:31:32;;;;;;;5.43;4.03;;;12.50;73.70;;;;;;4889365;29;20274;-77
2024/03/10 05:33:59;;;;;;;6.18;4.57;;;12.50;74.30;;;;;;4897354;29;20294;-77
2024/03/10 05:36:26;;;;;;;6.45;4.70;;;12.40;73.90;;;;;;4897504;29;20181;-77
2024/03/10 05:38:52;;;;;;;6.53;4.85;;;12.40;74.10;;;;;;4896585;29;20202;-77
2024/03/10 05:41:18;;;;;;;4.93;3.90;;;12.40;74.30;;;;;;4897011;29;20189;-77
2024/03/10 05:43:44;;;;;;;5.63;4.40;;;12.40;74.50;;;;;;4893969;29;20201;-77
2024/03/10 05:46:10;;;;;;;4.70;4.00;;;12.30;74.60;;;;;;4883521;29;20184;-77
2024/03/10 05:48:35;;;;;;;6.20;4.67;;;12.30;74.20;;;;;;4892281;29;20622;-77
2024/03/10 05:51:01;;;;;;;5.17;4.57;;;12.30;74.30;;;;;;4910644;29;20601;-77
2024/03/10 05:53:27;;;;;;;6.10;4.50;;;12.30;75.00;;;;;;4895920;29;20233;-77
2024/03/10 05:55:54;;;;;;;5.75;4.55;;;12.20;74.60;;;;;;4889247;29;20226;-77
2024/03/10 05:58:21;;;;;;;7.28;5.72;;;12.20;74.50;;;;;;4895624;29;20604;-77
2024/03/10 06:00:48;;;;;;;5.50;4.38;;;12.20;74.70;;;;;;4894948;29;20186;-77
2024/03/10 06:03:14;;;;;;;5.75;4.45;;;12.20;74.90;;;;;;4895640;29;20220;-77
2024/03/10 06:05:40;;;;;;;5.63;4.10;;;12.10;75.40;;;;;;4910123;29;20538;-78
2024/03/10 06:08:08;;;;;;;6.07;4.10;;;12.10;75.70;;;;;;4882928;29;20194;-77
2024/03/10 06:10:34;;;;;;;8.07;4.63;;;12.10;75.20;;;;;;4894776;29;20732;-77
2024/03/10 06:12:59;;;;;;;6.30;5.27;;;12.00;76.50;;;;;;4895412;29;20277;-77
2024/03/10 06:15:25;;;;;;;6.17;4.20;;;12.00;75.70;;;;;;4896527;29;20606;-77
2024/03/10 06:18:03;;;;;;;6.13;5.20;;;12.00;75.70;;;;;;4900244;29;20217;-77
2024/03/10 06:25:22;;;;;;;6.38;5.05;;;12.00;75.90;;;;;;4893162;29;20210;-77
2024/03/10 06:26:21;;;;;;;7.75;4.55;;;12.00;76.00;;;;;;4895051;29;20174;-77
2024/03/10 06:28:49;;;;;;;6.80;4.75;;;12.00;75.90;;;;;;4878996;29;20225;-78
2024/03/10 06:31:16;;;;;;;5.85;3.42;;;12.00;76.80;;;;;;4896474;29;20183;-77
2024/03/10 06:33:42;;;;;;;7.15;5.00;;;12.00;76.40;;;;;;4896455;29;20201;-77
2024/03/10 06:36:10;;;;;;;5.20;4.10;;;12.00;76.70;;;;;;4896482;29;20182;-78
2024/03/10 06:38:42;;;;;;;4.90;4.20;;;12.00;77.10;;;;;;4884894;29;20204;-78
2024/03/10 06:41:08;;;;;;;5.93;5.15;;;12.00;77.40;;;;;;4883793;29;20187;-78
2024/03/10 06:43:35;;;;;;;5.68;4.82;;;12.00;77.50;;;;;;4901791;29;20293;-78
2024/03/10 06:46:00;;;;;;;4.93;4.25;;;12.00;78.00;;;;;;4874960;29;20230;-78
2024/03/10 06:48:26;;;;;;;8.47;5.43;;;12.00;77.30;;;;;;4888555;29;20684;-78
2024/03/10 06:50:52;;;;;;;6.68;4.55;;;12.00;77.40;;;;;;4907422;29;20649;-78
2024/03/10 06:53:18;;;;;;;7.10;5.22;;;12.10;77.60;;;;;;4878018;29;20184;-78
2024/03/10 06:55:44;;;;;;;7.77;5.47;;;12.00;77.50;;;;;;4892896;29;20514;-78
2024/03/10 06:58:11;;;;;;;5.00;4.25;;;12.10;78.10;;;;;;4886143;29;20195;-78
2024/03/10 07:00:37;;;;;;;6.00;4.70;;;12.10;78.40;;;;;;4893465;29;20194;-78
2024/03/10 07:03:04;;;;;;;6.78;4.68;;;12.10;78.50;;;;;;4894577;29;20247;-78
2024/03/10 07:05:30;;;;;;;7.50;4.90;;;12.10;78.40;;;;;;4887892;29;20169;-77
2024/03/10 07:07:56;;;;;;;5.37;4.33;;;12.20;78.60;;;;;;4895655;29;20199;-78
2024/03/10 07:10:22;;;;;;;6.00;4.10;;;12.20;78.50;;;;;;4872518;29;20652;-77
2024/03/10 07:12:48;;;;;;;5.90;4.50;;;12.30;78.60;;;;;;4891667;29;21040;-77
2024/03/10 07:15:15;;;;;;;5.10;3.90;;;12.30;78.60;;;;;;4890640;29;20793;-78
2024/03/10 07:17:41;;;;;;;6.57;4.65;;;12.30;78.60;;;;;;4884385;29;21411;-77
2024/03/10 07:20:10;;;;;;;5.30;4.07;;;12.30;78.70;;;;;;4894075;29;20178;-77
2024/03/10 07:22:41;;;;;;;6.10;4.30;;;12.30;78.60;;;;;;4887376;29;20643;-77
2024/03/10 07:25:10;;;;;;;7.03;5.10;;;12.40;78.80;;;;;;4894598;29;20210;-77
2024/03/10 07:27:36;;;;;;;7.32;4.68;;;12.40;78.80;;;;;;4895211;29;20202;-77
2024/03/10 07:30:04;;;;;;;6.63;4.50;;;12.50;79.00;;;;;;4895189;29;20532;-77
2024/03/10 07:32:33;;;;;;;6.28;4.90;;;12.50;79.00;;;;;;4894164;29;20240;-78
2024/03/10 07:35:00;;;;;;;6.18;4.60;;;12.50;79.10;;;;;;4901808;29;20211;-77
2024/03/10 07:37:27;;;;;;;7.40;4.90;;;12.50;79.10;;;;;;4881881;29;20641;-77
2024/03/10 07:39:56;;;;;;;6.18;5.18;;;12.60;79.20;;;;;;4879426;29;20206;-77
2024/03/10 07:42:21;;;;;;;7.03;5.00;;;12.60;79.20;;;;;;4893929;29;20230;-77
2024/03/10 07:44:47;;;;;;;6.47;4.43;;;12.70;79.30;;;;;;4894421;29;20220;-77
2024/03/10 07:47:13;;;;;;;6.90;4.77;;;12.70;79.30;;;;;;4895625;29;20609;-78
2024/03/10 07:49:39;;;;;;;7.65;5.13;;;12.70;79.40;;;;;;4893769;29;20238;-77
2024/03/10 07:52:06;;;;;;;7.88;5.72;;;12.80;79.90;;;;;;4893901;29;20186;-77
2024/03/10 07:54:32;;;;;;;6.03;4.85;;;12.80;79.60;;;;;;4891328;29;20214;-77
2024/03/10 07:56:58;;;;;;;5.70;5.05;;;12.90;79.90;;;;;;4893878;29;20175;-76
2024/03/10 07:59:25;;;;;;;8.27;6.53;;;12.90;79.90;;;;;;4893517;29;20205;-77
2024/03/10 08:01:51;;;;;;;7.05;5.50;;;12.90;79.90;;;;;;4892800;29;20809;-76
2024/03/10 08:04:18;;;;;;;7.50;5.30;;;12.90;79.80;;;;;;4879345;29;20211;-76
2024/03/10 08:06:44;;;;;;;7.60;4.80;;;12.90;79.80;;;;;;4870045;29;20190;-77
2024/03/10 08:09:10;;;;;;;7.10;5.18;;;13.00;80.00;;;;;;4888623;29;20190;-77
2024/03/10 08:11:36;;;;;;;7.43;5.40;;;13.00;80.00;;;;;;4878034;29;20668;-77
2024/03/10 08:14:01;;;;;;;7.37;5.90;;;13.10;80.90;;;;;;4904532;29;20190;-78
2024/03/10 08:16:27;;;;;;;6.73;5.10;;;13.20;80.40;;;;;;4903152;29;20174;-78
2024/03/10 08:18:53;;;;;;;6.70;5.63;;;13.30;80.40;;;;;;4897174;29;20210;-79
2024/03/10 08:21:19;;;;;;;6.80;5.40;;;13.50;80.80;;;;;;4898269;29;20634;-76
2024/03/10 08:23:44;;;;;;;8.23;6.43;;;13.70;80.70;;;;;;4896074;29;20234;-78
2024/03/10 08:26:10;;;;;;;7.30;5.67;;;13.80;80.90;;;;;;4883089;29;20189;-78
2024/03/10 08:28:39;;;;;;;8.37;6.57;;;14.00;80.60;;;;;;4882448;29;20199;-77
2024/03/10 08:31:05;;;;;;;6.80;5.83;;;14.20;79.70;;;;;;4899178;29;20187;-78
2024/03/10 08:33:31;;;;;;;8.27;6.47;;;14.30;79.10;;;;;;4896306;29;20662;-77
2024/03/10 08:35:58;;;;;;;6.57;5.43;;;14.30;78.50;;;;;;4894381;29;20591;-77
2024/03/10 08:38:26;;;;;;;5.83;5.20;;;14.40;78.50;;;;;;4884609;29;21263;-77
2024/03/10 08:40:54;;;;;;;6.07;5.00;;;14.40;77.50;;;;;;4897759;29;20285;-77
2024/03/10 08:43:23;;;;;;;7.30;5.63;;;14.50;78.20;;;;;;4898779;29;20697;-77
2024/03/10 08:45:49;;;;;;;7.70;6.30;;;14.60;77.90;;;;;;4898664;29;20633;-77
2024/03/10 08:48:15;;;;;;;5.70;5.00;;;14.60;76.90;;;;;;4899455;29;20646;-78
2024/03/10 08:50:42;;;;;;;7.87;6.33;;;14.80;78.20;;;;;;4880710;29;20599;-77
2024/03/10 08:53:08;;;;;;;5.80;5.03;;;15.10;78.70;;;;;;4881308;29;20612;-77
2024/03/10 08:55:35;;;;;;;6.87;5.27;;;15.70;81.40;;;;;;4888202;29;20598;-78
2024/03/10 08:58:03;;;;;;;6.47;5.33;;;16.60;83.20;;;;;;4892940;29;20670;-77
2024/03/10 09:00:30;;;;;;;7.40;4.90;;;17.40;81.90;;;;;;4877286;29;20751;-78
2024/03/10 09:02:56;;;;;;;7.30;5.50;;;18.30;83.70;;;;;;4879421;29;20659;-77
2024/03/10 09:05:23;;;;;;;5.17;4.30;;;19.40;83.40;;;;;;4890463;29;20598;-78
2024/03/10 09:07:50;;;;;;;6.37;4.97;;;20.30;81.10;;;;;;4887854;29;20646;-79
2024/03/10 09:10:16;;;;;;;6.00;5.33;;;21.00;79.00;;;;;;4887324;29;20611;-78
2024/03/10 09:12:42;;;;;;;4.97;4.43;;;21.60;78.30;;;;;;4878830;29;20631;-77
2024/03/10 09:15:12;;;;;;;4.70;4.30;;;22.30;75.60;;;;;;4898036;29;20579;-78
2024/03/10 09:17:38;;;;;;;5.87;5.23;;;22.70;73.80;;;;;;4892023;29;20637;-76
2024/03/10 09:20:11;;;;;;;5.07;4.30;;;23.00;69.00;;;;;;4896353;29;20597;-77
2024/03/10 09:23:25;;;;;;;6.10;4.80;;;23.10;68.90;;;;;;4881518;29;20666;-77
2024/03/10 09:25:50;;;;;;;4.80;4.30;;;23.30;65.30;;;;;;4888449;29;20702;-77
2024/03/10 09:28:17;;;;;;;5.00;4.23;;;23.50;65.40;;;;;;4889979;29;21066;-77
2024/03/10 09:30:48;;;;;;;5.30;4.80;;;23.70;66.00;;;;;;4895023;29;20637;-77
2024/03/10 09:33:16;;;;;;;5.50;4.77;;;24.00;64.90;;;;;;4897545;29;20943;-78
2024/03/10 09:35:43;;;;;;;5.40;4.03;;;24.20;64.40;;;;;;4889783;29;20594;-77
2024/03/10 09:38:12;;;;;;;5.03;4.53;;;24.60;64.00;;;;;;4893967;29;20630;-78
2024/03/10 09:40:39;;;;;;;5.80;4.60;;;24.80;61.60;;;;;;4888089;29;20591;-78
2024/03/10 09:43:11;;;;;;;6.73;5.40;;;25.20;62.30;;;;;;4897238;29;20638;-77
2024/03/10 09:45:43;;;;;;;5.60;4.87;;;25.50;57.60;;;;;;4880723;29;20638;-78
2024/03/10 09:48:09;;;;;;;4.70;4.20;;;25.40;56.40;;;;;;4893963;29;20625;-78
2024/03/10 09:50:49;;;;;;;4.63;4.20;;;25.30;57.00;;;;;;4892870;29;20591;-78
2024/03/10 09:53:18;;;;;;;4.80;4.40;;;25.20;56.80;;;;;;4887774;29;20597;-77
2024/03/10 09:55:48;;;;;;;4.80;4.30;;;25.30;54.80;;;;;;4887125;29;20608;-77
2024/03/10 09:58:17;;;;;;;5.07;4.10;;;25.40;56.40;;;;;;4895242;29;20634;-76
2024/03/10 10:00:45;;;;;;;5.30;4.80;;;25.50;53.90;;;;;;4886717;29;20600;-77
2024/03/10 10:03:15;;;;;;;5.00;4.40;;;25.30;51.60;;;;;;4909581;29;21056;-77
2024/03/10 10:05:46;;;;;;;6.00;5.00;;;25.10;50.70;;;;;;4886818;29;21167;-77
2024/03/10 10:08:12;;;;;;;4.40;4.00;;;24.80;51.80;;;;;;4886534;29;20619;-76
2024/03/10 10:10:49;;;;;;;4.60;4.20;;;24.50;51.30;;;;;;4892356;29;20657;-76
2024/03/10 10:13:27;;;;;;;5.57;4.20;;;24.60;51.80;;;;;;4896855;29;20586;-76
2024/03/10 10:15:56;;;;;;;5.97;5.00;;;24.50;49.80;;;;;;4896539;29;20605;-76
2024/03/10 10:18:23;;;;;;;6.43;5.20;;;24.10;50.30;;;;;;4896511;29;20690;-76
2024/03/10 10:20:55;;;;;;;5.70;5.10;;;23.70;49.40;;;;;;4888032;29;20614;-76
2024/03/10 10:23:26;;;;;;;5.80;4.43;;;23.10;48.00;;;;;;4895423;29;20733;-76
2024/03/10 10:26:10;;;;;;;4.60;3.83;;;23.10;49.90;;;;;;4895473;29;20594;-76
2024/03/10 10:28:37;;;;;;;5.00;4.00;;;23.30;50.60;;;;;;4896555;29;20622;-76
2024/03/10 10:31:14;;;;;;;5.80;4.87;;;23.70;51.40;;;;;;4895714;29;20594;-76
2024/03/10 10:33:41;;;;;;;6.03;4.80;;;23.80;49.50;;;;;;4888636;29;20598;-77
2024/03/10 10:36:07;;;;;;;4.73;4.23;;;23.90;50.40;;;;;;4894143;29;20697;-77
2024/03/10 10:38:39;;;;;;;5.17;4.37;;;23.90;50.40;;;;;;4895115;29;20654;-76
2024/03/10 10:41:08;;;;;;;5.83;5.33;;;23.60;49.50;;;;;;4895970;29;20641;-76
2024/03/10 10:43:38;;;;;;;5.93;5.20;;;23.10;47.30;;;;;;4898883;29;20741;-76
2024/03/10 10:46:10;;;;;;;6.13;5.33;;;22.70;48.50;;;;;;4892966;29;20633;-76
2024/03/10 10:48:36;;;;;;;5.70;4.97;;;22.40;48.60;;;;;;4890566;29;20618;-76
2024/03/10 10:51:06;;;;;;;7.40;6.07;;;22.10;48.60;;;;;;4886512;29;20641;-76
2024/03/10 10:53:38;;;;;;;6.73;5.60;;;21.80;48.20;;;;;;4885743;29;20599;-76
2024/03/10 10:56:04;;;;;;;4.97;4.30;;;21.40;48.50;;;;;;4886561;29;20838;-76
2024/03/10 10:58:33;;;;;;;5.77;4.80;;;21.10;48.90;;;;;;4910337;29;21197;-76
2024/03/10 11:01:04;;;;;;;5.60;4.63;;;21.00;49.40;;;;;;4892450;29;20603;-76
2024/03/10 11:03:37;;;;;;;6.00;5.40;;;21.00;50.00;;;;;;4888574;29;20650;-76
2024/03/10 11:06:02;;;;;;;5.80;5.20;;;20.90;49.60;;;;;;4891877;29;20599;-76
2024/03/10 11:08:35;;;;;;;5.23;4.60;;;20.80;49.50;;;;;;4890390;29;20618;-76
2024/03/10 11:11:02;;;;;;;5.67;4.60;;;20.80;50.00;;;;;;4895074;29;20186;-76
2024/03/10 11:13:28;;;;;;;6.10;5.20;;;20.70;49.70;;;;;;4895812;29;20587;-76
2024/03/10 11:16:09;;;;;;;5.80;5.20;;;20.50;49.70;;;;;;4895440;29;20638;-76
2024/03/10 11:18:38;;;;;;;6.00;4.60;;;20.40;49.70;;;;;;4887773;29;20656;-76
2024/03/10 11:21:17;;;;;;;6.00;4.60;;;20.40;50.10;;;;;;4890740;29;20885;-76
2024/03/10 11:23:45;;;;;;;6.30;5.00;;;20.40;49.90;;;;;;4895501;29;20678;-76
2024/03/10 11:26:21;;;;;;;5.40;4.83;;;20.40;50.40;;;;;;4895606;29;21030;-76
2024/03/10 11:28:48;;;;;;;5.60;4.50;;;20.40;50.50;;;;;;4892391;29;20713;-76
2024/03/10 11:31:20;;;;;;;4.90;4.40;;;20.50;50.80;;;;;;4888140;29;20582;-76
2024/03/10 11:33:48;;;;;;;6.30;5.10;;;20.60;50.80;;;;;;4895357;29;20990;-76
2024/03/10 11:36:17;;;;;;;5.30;4.80;;;20.60;50.90;;;;;;4894458;29;20630;-76
2024/03/10 11:38:44;;;;;;;5.20;4.70;;;20.70;51.70;;;;;;4887219;29;20725;-76
2024/03/10 11:41:10;;;;;;;5.70;4.00;;;21.00;52.30;;;;;;4883219;29;20596;-76
2024/03/10 11:43:43;;;;;;;6.17;4.53;;;21.30;52.50;;;;;;4890697;29;21001;-76
2024/03/10 11:46:19;;;;;;;5.30;4.50;;;21.40;51.40;;;;;;4895374;29;20622;-76
2024/03/10 11:48:52;;;;;;;5.37;4.27;;;21.40;50.30;;;;;;4892236;29;21051;-76
2024/03/10 11:51:18;;;;;;;5.90;4.90;;;21.50;51.50;;;;;;4899195;29;20578;-76
2024/03/10 11:53:44;;;;;;;5.33;4.80;;;21.60;52.00;;;;;;4891716;29;20621;-76
2024/03/10 11:56:10;;;;;;;5.37;4.60;;;21.70;51.20;;;;;;4899339;29;20583;-76
2024/03/10 11:58:36;;;;;;;5.10;3.93;;;21.60;51.00;;;;;;4900230;29;20206;-76
2024/03/10 12:01:08;;;;;;;5.37;4.40;;;21.70;51.10;;;;;;4898421;29;20590;-76
2024/03/10 12:03:37;;;;;;;5.10;4.10;;;21.70;51.30;;;;;;4897702;29;21102;-76
2024/03/10 12:06:05;;;;;;;5.03;4.53;;;21.80;51.40;;;;;;4881921;29;20600;-75
2024/03/10 12:08:37;;;;;;;4.10;3.50;;;21.90;51.40;;;;;;4901980;29;21031;-75
2024/03/10 12:11:04;;;;;;;5.87;4.50;;;22.00;51.30;;;;;;4893800;29;20937;-76
2024/03/10 12:13:30;;;;;;;5.63;4.70;;;22.10;51.30;;;;;;4893545;29;20619;-75
2024/03/10 12:16:01;;;;;;;8.40;5.97;;;22.10;50.80;;;;;;4891255;29;20591;-75
2024/03/10 12:18:29;;;;;;;5.03;4.43;;;22.20;51.00;;;;;;4898426;29;20638;-75
2024/03/10 12:20:57;;;;;;;4.97;4.47;;;22.30;51.00;;;;;;4898018;29;20945;-76
2024/03/10 12:23:23;;;;;;;5.60;4.53;;;22.20;50.60;;;;;;4897551;29;20645;-76
2024/03/10 12:25:52;;;;;;;6.97;4.97;;;22.20;50.70;;;;;;4898617;29;20583;-76
2024/03/10 12:28:18;;;;;;;5.13;4.60;;;22.20;50.40;;;;;;4883502;29;20666;-75
2024/03/10 12:30:45;;;;;;;4.70;4.20;;;22.20;50.60;;;;;;4881007;29;20594;-76
2024/03/10 12:33:11;;;;;;;6.90;5.30;;;22.20;50.20;;;;;;4898599;29;20966;-76
2024/03/10 12:35:40;;;;;;;4.97;4.47;;;22.10;50.30;;;;;;4900339;29;20594;-75
2024/03/10 12:38:07;;;;;;;4.67;4.17;;;22.10;50.40;;;;;;4894876;29;20634;-75
2024/03/10 12:40:36;;;;;;;5.10;4.10;;;22.10;50.10;;;;;;4884557;29;20745;-75
2024/03/10 12:43:02;;;;;;;6.70;5.60;;;22.00;49.80;;;;;;4896936;29;21008;-75
2024/03/10 12:45:29;;;;;;;5.27;4.70;;;21.90;49.10;;;;;;4898277;29;20648;-75
2024/03/10 12:47:56;;;;;;;4.53;4.00;;;21.70;48.40;;;;;;4912482;29;20681;-76
2024/03/10 12:50:22;;;;;;;6.80;5.07;;;21.50;48.20;;;;;;4886042;29;20606;-75
2024/03/10 12:52:48;;;;;;;5.00;4.23;;;21.40;48.00;;;;;;4879449;29;20952;-76
2024/03/10 12:55:15;;;;;;;5.67;4.17;;;21.20;47.90;;;;;;4878406;29;20674;-75
2024/03/10 12:57:41;;;;;;;6.00;4.50;;;21.10;48.30;;;;;;4879735;29;20726;-75
2024/03/10 13:00:27;;;;;;;4.60;3.90;;;20.90;48.10;;;;;;4877714;29;20610;-75
2024/03/10 13:02:57;;;;;;;6.10;4.10;;;20.80;48.40;;;;;;4893734;29;20654;-77
2024/03/10 13:05:24;;;;;;;5.83;4.07;;;20.70;48.50;;;;;;4902761;29;20702;-76
2024/03/10 13:07:50;;;;;;;4.73;3.27;;;20.70;48.70;;;;;;4889345;29;20615;-75